createdAt,value
2023-04-09T00:01:47.584Z,11.80
2023-04-09T00:06:53.338Z,12.40
2023-04-09T00:11:59.151Z,11.90
2023-04-09T00:17:04.834Z,9.50
2023-04-09T00:22:10.500Z,10.00
2023-04-09T00:27:16.149Z,11.30
2023-04-09T00:32:21.754Z,14.30
2023-04-09T00:37:27.440Z,10.60
2023-04-09T00:42:35.992Z,13.00
2023-04-09T00:47:45.039Z,16.60
2023-04-09T00:52:51.029Z,17.80
2023-04-09T00:57:56.736Z,17.60
2023-04-09T01:03:04.076Z,30.30
2023-04-09T01:08:32.828Z,20.30
2023-04-09T01:13:47.549Z,21.20
2023-04-09T01:19:03.010Z,16.60
2023-04-09T01:24:26.798Z,13.30
2023-04-09T01:29:38.705Z,13.80
2023-04-09T01:34:47.421Z,10.30
2023-04-09T01:39:53.487Z,14.20
2023-04-09T01:45:00.645Z,13.20
2023-04-09T01:50:08.419Z,14.20
2023-04-09T01:55:14.595Z,15.50
2023-04-09T02:00:20.968Z,12.30
2023-04-09T02:05:32.074Z,17.00
2023-04-09T02:10:40.679Z,18.70
2023-04-09T02:15:47.805Z,16.80
2023-04-09T02:20:54.771Z,15.90
2023-04-09T02:26:02.832Z,14.40
2023-04-09T02:31:08.674Z,16.80
2023-04-09T02:36:15.239Z,16.60
2023-04-09T02:41:21.300Z,19.30
2023-04-09T02:46:27.160Z,19.20
2023-04-09T02:51:34.441Z,17.80
2023-04-09T02:56:40.089Z,17.90
2023-04-09T03:01:45.993Z,19.70
2023-04-09T03:06:51.753Z,17.00
2023-04-09T03:11:57.562Z,11.90
2023-04-09T03:17:03.255Z,18.10
2023-04-09T03:22:09.054Z,11.00
2023-04-09T03:27:14.927Z,13.80
2023-04-09T03:32:20.729Z,15.00
2023-04-09T03:37:26.465Z,18.70
2023-04-09T03:42:32.076Z,13.60
2023-04-09T03:47:37.812Z,13.00
2023-04-09T03:52:43.448Z,15.90
2023-04-09T03:57:49.074Z,14.20
2023-04-09T04:02:55.118Z,13.80
2023-04-09T04:08:01.065Z,13.10
2023-04-09T04:13:09.273Z,16.20
2023-04-09T04:18:15.170Z,15.00
2023-04-09T04:23:20.837Z,14.50
2023-04-09T04:28:26.901Z,15.90
2023-04-09T04:33:32.749Z,16.10
2023-04-09T04:38:39.532Z,16.60
2023-04-09T04:43:46.828Z,13.90
2023-04-09T04:48:52.948Z,11.30
2023-04-09T04:53:59.026Z,14.30
2023-04-09T04:59:04.690Z,16.90
2023-04-09T05:04:10.579Z,18.10
2023-04-09T05:09:16.202Z,18.00
2023-04-09T05:14:22.102Z,11.20
2023-04-09T05:19:27.839Z,16.30
2023-04-09T05:24:33.596Z,14.90
2023-04-09T05:29:39.224Z,14.10
2023-04-09T05:34:45.051Z,13.30
2023-04-09T05:39:51.016Z,13.80
2023-04-09T05:44:56.806Z,12.90
2023-04-09T05:50:02.856Z,15.30
2023-04-09T05:55:10.333Z,11.90
2023-04-09T06:00:17.965Z,11.40
2023-04-09T06:05:23.662Z,9.70
2023-04-09T06:10:29.929Z,6.50
2023-04-09T06:15:37.892Z,10.60
2023-04-09T06:20:44.208Z,11.10
2023-04-09T06:25:50.327Z,10.80
2023-04-09T06:30:57.225Z,8.60
2023-04-09T06:36:03.185Z,10.70
2023-04-09T06:41:09.794Z,7.30
2023-04-09T06:46:18.072Z,10.40
2023-04-09T06:51:24.019Z,7.70
2023-04-09T06:56:29.642Z,13.00
2023-04-09T07:01:37.326Z,11.90
2023-04-09T07:06:43.254Z,10.80
2023-04-09T07:11:48.948Z,9.10
2023-04-09T07:16:54.617Z,10.70
2023-04-09T07:22:00.261Z,12.20
2023-04-09T07:27:07.399Z,12.50
2023-04-09T07:32:13.026Z,10.10
2023-04-09T07:37:19.103Z,10.50
2023-04-09T07:42:25.334Z,9.50
2023-04-09T07:47:32.134Z,9.50
2023-04-09T07:52:37.781Z,9.20
2023-04-09T07:57:44.838Z,10.70
2023-04-09T08:02:51.276Z,8.30
2023-04-09T08:07:57.069Z,10.20
2023-04-09T08:13:02.962Z,10.50
2023-04-09T08:18:11.304Z,11.30
2023-04-09T08:23:16.937Z,10.80
2023-04-09T08:28:22.983Z,11.10
2023-04-09T08:33:28.850Z,10.40
2023-04-09T08:38:34.734Z,10.00
2023-04-09T08:43:56.899Z,11.40
2023-04-09T08:49:04.582Z,10.60
2023-04-09T08:54:10.712Z,9.30
2023-04-09T08:59:18.690Z,10.60
2023-04-09T09:04:24.310Z,10.00
2023-04-09T09:09:30.097Z,8.30
2023-04-09T09:14:35.793Z,9.90
2023-04-09T09:19:41.647Z,11.90
2023-04-09T09:24:51.769Z,13.40
2023-04-09T09:29:57.658Z,11.30
2023-04-09T09:35:09.233Z,11.00
2023-04-09T09:40:29.504Z,11.20
2023-04-09T09:45:36.470Z,10.40
2023-04-09T09:50:43.381Z,11.10
2023-04-09T09:55:57.459Z,12.50
2023-04-09T10:01:08.181Z,11.00
2023-04-09T10:06:14.670Z,10.40
2023-04-09T10:11:23.170Z,12.40
2023-04-09T10:16:29.248Z,9.30
2023-04-09T10:21:43.582Z,10.40
2023-04-09T10:26:50.004Z,8.60
2023-04-09T10:32:05.832Z,9.00
2023-04-09T10:37:17.285Z,9.70
2023-04-09T10:42:25.606Z,9.40
2023-04-09T10:47:36.884Z,11.20
2023-04-09T10:52:43.836Z,10.40
2023-04-09T10:57:49.507Z,10.00
2023-04-09T11:03:26.757Z,12.00
2023-04-09T11:08:35.434Z,12.10
2023-04-09T11:13:43.540Z,10.90
2023-04-09T11:18:49.654Z,10.70
2023-04-09T11:23:55.938Z,10.20
2023-04-09T11:29:07.759Z,13.10
2023-04-09T11:34:13.876Z,11.10
2023-04-09T11:39:19.632Z,9.30
2023-04-09T11:44:25.323Z,10.80
2023-04-09T11:49:31.569Z,12.60
2023-04-09T11:54:37.437Z,9.90
2023-04-09T11:59:43.503Z,13.30
2023-04-09T12:04:53.068Z,11.40
2023-04-09T12:10:05.713Z,9.70
2023-04-09T12:15:23.379Z,9.90
2023-04-09T12:20:35.473Z,10.70
2023-04-09T12:25:43.354Z,11.30
2023-04-09T12:30:50.891Z,9.40
2023-04-09T12:35:57.871Z,10.50
2023-04-09T12:41:03.853Z,9.80
2023-04-09T12:46:10.115Z,9.50
2023-04-09T12:51:16.467Z,9.00
2023-04-09T12:56:22.362Z,8.60
2023-04-09T13:01:28.076Z,9.70
2023-04-09T13:06:33.640Z,8.30
2023-04-09T13:11:39.340Z,8.70
2023-04-09T13:16:45.296Z,9.10
2023-04-09T13:21:51.170Z,8.30
2023-04-09T13:26:57.143Z,8.80
2023-04-09T13:32:06.834Z,8.50
2023-04-09T13:37:12.487Z,9.40
2023-04-09T13:42:18.727Z,8.60
2023-04-09T13:47:25.213Z,10.40
2023-04-09T13:52:33.099Z,32.20
2023-04-09T13:57:38.779Z,11.40
2023-04-09T14:02:44.680Z,12.80
2023-04-09T14:07:50.435Z,17.10
2023-04-09T14:12:56.085Z,15.00
2023-04-09T14:18:01.963Z,16.00
2023-04-09T14:23:07.626Z,14.80
2023-04-09T14:28:13.394Z,15.20
2023-04-09T14:33:19.210Z,13.00
2023-04-09T14:38:24.865Z,15.40
2023-04-09T14:43:30.591Z,18.80
2023-04-09T14:48:36.491Z,19.00
2023-04-09T14:53:42.703Z,20.30
2023-04-09T14:58:48.368Z,16.40
2023-04-09T15:03:54.239Z,16.80
2023-04-09T15:09:00.044Z,17.80
2023-04-09T15:14:06.206Z,14.30
2023-04-09T15:19:11.885Z,13.70
2023-04-09T15:24:17.590Z,11.60
2023-04-09T15:29:23.439Z,11.60
2023-04-09T15:34:29.072Z,12.60
2023-04-09T15:39:34.721Z,13.70
2023-04-09T15:44:41.014Z,14.20
2023-04-09T15:49:46.999Z,13.00
2023-04-09T15:54:52.737Z,10.40
2023-04-09T15:59:58.641Z,9.10
2023-04-09T16:05:04.785Z,10.20
2023-04-09T16:10:13.770Z,9.70
2023-04-09T16:15:20.180Z,13.20
2023-04-09T16:20:26.180Z,7.80
2023-04-09T16:25:32.434Z,11.70
2023-04-09T16:30:38.262Z,8.50
2023-04-09T16:35:43.866Z,8.20
2023-04-09T16:40:49.493Z,9.50
2023-04-09T16:45:55.309Z,9.00
2023-04-09T16:51:01.188Z,11.80
2023-04-09T16:56:08.720Z,9.60
2023-04-09T17:01:14.787Z,9.30
2023-04-09T17:06:20.566Z,9.00
2023-04-09T17:11:26.435Z,9.20
2023-04-09T17:16:32.889Z,9.70
2023-04-09T17:21:38.795Z,7.80
2023-04-09T17:26:44.659Z,9.90
2023-04-09T17:31:53.331Z,7.10
2023-04-09T17:36:59.543Z,9.30
2023-04-09T17:42:06.070Z,17.20
2023-04-09T17:47:12.431Z,12.10
2023-04-09T17:52:19.955Z,8.40
2023-04-09T17:57:25.589Z,12.70
2023-04-09T18:02:31.864Z,11.60
2023-04-09T18:07:38.338Z,10.20
2023-04-09T18:12:44.304Z,8.10
2023-04-09T18:17:50.454Z,10.00
2023-04-09T18:22:56.147Z,10.10
2023-04-09T18:28:02.003Z,10.40
2023-04-09T18:33:07.722Z,15.70
2023-04-09T18:38:13.349Z,16.70
2023-04-09T18:43:18.983Z,8.90
2023-04-09T18:48:24.648Z,8.00
2023-04-09T18:53:30.968Z,9.80
2023-04-09T18:58:36.889Z,10.10
2023-04-09T19:03:42.965Z,9.00
2023-04-09T19:08:52.481Z,8.90
2023-04-09T19:13:58.729Z,7.90
2023-04-09T19:19:04.434Z,8.70
2023-04-09T19:24:10.432Z,6.50
2023-04-09T19:29:16.321Z,10.40
2023-04-09T19:34:22.055Z,8.00
2023-04-09T19:39:27.794Z,8.40
2023-04-09T19:44:33.688Z,8.90
2023-04-09T19:49:41.314Z,7.60
2023-04-09T19:54:46.988Z,7.60
2023-04-09T19:59:53.609Z,8.10
2023-04-09T20:04:59.582Z,9.60
2023-04-09T20:10:07.084Z,8.10
2023-04-09T20:15:13.895Z,7.80
2023-04-09T20:20:20.492Z,6.60
2023-04-09T20:25:33.438Z,7.00
2023-04-09T20:30:39.240Z,7.40
2023-04-09T20:35:45.109Z,6.70
2023-04-09T20:40:52.259Z,10.70
2023-04-09T20:45:58.087Z,8.40
2023-04-09T20:51:08.265Z,9.80
2023-04-09T20:56:14.174Z,10.80
2023-04-09T21:01:22.910Z,9.00
2023-04-09T21:06:28.811Z,9.30
2023-04-09T21:11:34.490Z,11.10
2023-04-09T21:16:40.499Z,10.00
2023-04-09T21:21:46.248Z,9.40
2023-04-09T21:26:52.497Z,8.20
2023-04-09T21:31:58.397Z,8.90
2023-04-09T21:37:05.823Z,10.50
2023-04-09T21:42:11.578Z,12.60
2023-04-09T21:47:17.447Z,9.80
2023-04-09T21:52:24.132Z,9.70
2023-04-09T21:57:30.041Z,8.90
2023-04-09T22:02:38.031Z,9.40
2023-04-09T22:07:45.109Z,12.60
2023-04-09T22:12:51.063Z,10.30
2023-04-09T22:17:57.298Z,9.60
2023-04-09T22:23:03.059Z,9.80
2023-04-09T22:28:08.794Z,9.30
2023-04-09T22:33:14.676Z,9.20
2023-04-09T22:38:20.824Z,7.10
2023-04-09T22:43:26.673Z,8.50
2023-04-09T22:48:33.976Z,8.10
2023-04-09T22:53:41.757Z,9.70
2023-04-09T22:58:47.739Z,8.00
2023-04-09T23:03:53.884Z,9.90
2023-04-09T23:09:00.045Z,7.90
2023-04-09T23:14:05.933Z,10.90
2023-04-09T23:19:11.992Z,13.80
2023-04-09T23:24:18.835Z,9.10
2023-04-09T23:29:25.063Z,9.20
2023-04-09T23:34:30.853Z,6.90
2023-04-09T23:39:36.492Z,9.50
2023-04-09T23:44:43.607Z,8.30
2023-04-09T23:49:49.371Z,8.50
2023-04-09T23:54:55.492Z,10.40
